Time;durP1;ratioP1;P1;durP2;ratioP2;P2;SDS_P1;SDS_P2;PMS_P1;PMS_P2;Temp;Humidity;BMP_temperature;BMP_pressure;BME280_temperature;BME280_humidity;BME280_pressure;Samples;Min_cycle;Max_cycle;Signal;HPM_P1;HPM_P2
2021/03/20 00:00:44;;;;;;;2.35;1.02;;;-0.10;73.50;;;;;;4998444;28;20716;-57
2021/03/20 00:03:09;;;;;;;4.05;1.45;;;-0.10;73.20;;;;;;4989169;28;20781;-57
2021/03/20 00:05:35;;;;;;;4.68;1.20;;;0.00;72.40;;;;;;4998305;28;20047;-56
2021/03/20 00:08:03;;;;;;;1.73;1.10;;;0.00;72.30;;;;;;4998622;28;20034;-57
2021/03/20 00:10:29;;;;;;;4.00;1.33;;;0.00;72.30;;;;;;4998024;28;20025;-56
2021/03/20 00:12:56;;;;;;;4.30;1.50;;;0.10;72.50;;;;;;4998110;28;20045;-57
2021/03/20 00:15:25;;;;;;;3.53;1.45;;;0.10;72.00;;;;;;4998148;28;20044;-58
2021/03/20 00:17:51;;;;;;;2.75;1.52;;;0.10;72.20;;;;;;4997515;28;20034;-55
2021/03/20 00:20:23;;;;;;;2.55;0.98;;;0.10;71.60;;;;;;4998150;28;20034;-57
2021/03/20 00:22:49;;;;;;;1.48;0.85;;;0.20;72.30;;;;;;4997957;28;20033;-57
2021/03/20 00:25:16;;;;;;;1.90;1.10;;;0.20;71.80;;;;;;4998015;28;20030;-57
2021/03/20 00:27:42;;;;;;;1.77;1.05;;;0.20;71.50;;;;;;4997681;28;20474;-57
2021/03/20 00:30:08;;;;;;;2.90;1.02;;;0.20;72.00;;;;;;4998134;28;20091;-57
2021/03/20 00:32:35;;;;;;;2.83;0.90;;;0.20;71.60;;;;;;4997523;28;20041;-57
2021/03/20 00:35:00;;;;;;;4.15;1.20;;;0.20;71.60;;;;;;4997315;28;20120;-57
2021/03/20 00:37:26;;;;;;;1.60;0.88;;;0.20;71.60;;;;;;4997568;28;20033;-57
2021/03/20 00:39:52;;;;;;;3.42;1.40;;;0.20;71.50;;;;;;4997003;28;20038;-57
2021/03/20 00:42:18;;;;;;;3.55;0.95;;;0.20;72.20;;;;;;4997744;28;20029;-57
2021/03/20 00:44:43;;;;;;;2.08;0.82;;;0.20;72.50;;;;;;4997164;28;20041;-57
2021/03/20 00:47:09;;;;;;;4.30;1.45;;;0.20;72.20;;;;;;4996684;28;20814;-57
2021/03/20 00:49:35;;;;;;;3.55;0.93;;;0.20;72.00;;;;;;4996827;28;20704;-57
2021/03/20 00:52:01;;;;;;;4.38;0.90;;;0.20;71.60;;;;;;4997541;28;20050;-57
2021/03/20 00:54:27;;;;;;;3.80;1.08;;;0.30;72.00;;;;;;4996552;28;20454;-57
2021/03/20 00:56:52;;;;;;;1.45;0.70;;;0.30;72.00;;;;;;4997341;28;20125;-59
2021/03/20 00:59:18;;;;;;;1.92;0.75;;;0.20;71.90;;;;;;4997183;28;20034;-57
2021/03/20 01:01:44;;;;;;;1.50;0.80;;;0.30;72.10;;;;;;4996892;28;20045;-57
2021/03/20 01:04:10;;;;;;;3.45;1.00;;;0.30;71.90;;;;;;4996846;28;20050;-56
2021/03/20 01:06:35;;;;;;;1.25;0.82;;;0.30;72.40;;;;;;4996261;28;20029;-56
2021/03/20 01:09:02;;;;;;;1.48;1.08;;;0.30;72.30;;;;;;4994909;28;20025;-56
2021/03/20 01:11:29;;;;;;;3.08;1.08;;;0.40;72.40;;;;;;4996830;28;20106;-57
2021/03/20 01:13:57;;;;;;;3.33;0.80;;;0.40;72.40;;;;;;4997217;28;20034;-57
2021/03/20 01:16:23;;;;;;;2.30;1.20;;;0.50;72.80;;;;;;4995891;28;20120;-57
2021/03/20 01:18:49;;;;;;;2.70;0.90;;;0.50;72.70;;;;;;4996483;28;20029;-57
2021/03/20 01:21:15;;;;;;;2.55;0.90;;;0.50;72.60;;;;;;4996848;28;20040;-57
2021/03/20 01:23:41;;;;;;;2.15;0.90;;;0.50;72.80;;;;;;4982395;28;20034;-57
2021/03/20 01:26:07;;;;;;;1.42;0.80;;;0.60;73.20;;;;;;4997451;28;20107;-57
2021/03/20 01:28:34;;;;;;;2.33;0.80;;;0.60;73.20;;;;;;4996650;28;20566;-57
2021/03/20 01:31:00;;;;;;;2.08;0.95;;;0.60;73.20;;;;;;4997146;28;20029;-57
2021/03/20 01:33:28;;;;;;;2.95;1.20;;;0.60;72.80;;;;;;4996329;28;20105;-56
2021/03/20 01:35:54;;;;;;;1.55;0.68;;;0.60;72.90;;;;;;4996679;28;20127;-57
2021/03/20 01:38:20;;;;;;;1.85;0.90;;;0.70;72.40;;;;;;4996243;28;20034;-56
2021/03/20 01:40:52;;;;;;;3.72;1.27;;;0.70;72.50;;;;;;4996317;28;20037;-57
2021/03/20 01:43:22;;;;;;;1.60;1.00;;;0.70;72.90;;;;;;4996257;28;20038;-56
2021/03/20 01:45:48;;;;;;;3.80;1.02;;;0.70;72.80;;;;;;4996362;28;20060;-56
2021/03/20 01:48:21;;;;;;;1.33;0.80;;;0.70;72.90;;;;;;4995441;28;20164;-57
2021/03/20 01:50:49;;;;;;;1.75;0.70;;;0.70;73.40;;;;;;4996748;28;20065;-56
2021/03/20 01:53:26;;;;;;;1.58;0.93;;;0.70;72.80;;;;;;4996140;28;20038;-56
2021/03/20 01:55:52;;;;;;;;;;;0.70;73.20;;;;;;4996398;28;20072;-55
2021/03/20 01:58:18;;;;;;;3.45;1.17;;;0.80;72.70;;;;;;4996296;28;19995;-56
2021/03/20 02:00:45;;;;;;;4.50;1.17;;;0.70;72.80;;;;;;4995677;28;20765;-56
2021/03/20 02:03:16;;;;;;;2.83;0.95;;;0.70;72.70;;;;;;4996283;28;20379;-57
2021/03/20 02:05:42;;;;;;;3.03;1.30;;;0.70;72.90;;;;;;4995011;28;20065;-57
2021/03/20 02:08:11;;;;;;;3.38;1.00;;;0.70;73.00;;;;;;4995517;28;20045;-57
2021/03/20 02:10:40;;;;;;;2.70;1.20;;;0.80;73.20;;;;;;4995146;28;20042;-57
2021/03/20 02:13:11;;;;;;;3.22;1.15;;;0.80;72.80;;;;;;4980228;28;20061;-57
2021/03/20 02:15:44;;;;;;;3.15;1.05;;;0.80;73.10;;;;;;4993608;28;20061;-55
2021/03/20 02:18:48;;;;;;;2.22;1.10;;;0.80;73.20;;;;;;4995445;28;20038;-57
2021/03/20 02:21:27;;;;;;;1.63;0.90;;;0.80;73.00;;;;;;4996551;28;20046;-55
2021/03/20 02:24:35;;;;;;;1.05;0.80;;;0.90;73.20;;;;;;4995997;28;21028;-57
2021/03/20 02:27:07;;;;;;;3.40;1.25;;;0.90;73.30;;;;;;4995473;28;20092;-57
2021/03/20 02:30:06;;;;;;;1.52;1.00;;;0.90;73.70;;;;;;4996586;28;20061;-57
2021/03/20 02:32:54;;;;;;;1.08;0.90;;;1.00;73.30;;;;;;4996018;28;20509;-57
2021/03/20 02:35:33;;;;;;;2.85;0.93;;;0.90;73.40;;;;;;4996264;28;20092;-60
2021/03/20 02:38:23;;;;;;;3.90;1.00;;;0.90;73.70;;;;;;4995090;28;20742;-61
2021/03/20 02:41:04;;;;;;;7.25;1.17;;;0.90;73.50;;;;;;4978765;28;20038;-61
2021/03/20 02:43:56;;;;;;;2.80;1.63;;;0.90;73.70;;;;;;4996366;28;20111;-61
2021/03/20 02:46:28;;;;;;;3.30;1.40;;;0.90;73.70;;;;;;4996028;28;20704;-61
2021/03/20 02:49:07;;;;;;;2.97;1.00;;;1.00;74.00;;;;;;4995857;28;20034;-61
2021/03/20 02:51:53;;;;;;;2.75;1.38;;;0.90;74.20;;;;;;4996228;28;20044;-61
2021/03/20 02:54:38;;;;;;;3.83;1.43;;;1.00;73.80;;;;;;4991844;28;20053;-61
2021/03/20 02:57:09;;;;;;;1.63;0.90;;;1.00;73.80;;;;;;4995848;28;20080;-61
2021/03/20 02:59:39;;;;;;;2.92;1.08;;;1.00;73.90;;;;;;4995006;28;20609;-61
2021/03/20 03:02:10;;;;;;;2.28;1.00;;;1.00;73.90;;;;;;4995401;28;20030;-61
2021/03/20 03:04:45;;;;;;;4.25;1.27;;;1.00;73.90;;;;;;4995939;28;20104;-61
2021/03/20 03:07:25;;;;;;;2.08;1.00;;;1.00;73.70;;;;;;4990926;28;20033;-61
2021/03/20 03:10:01;;;;;;;3.03;0.90;;;1.10;73.80;;;;;;4995586;28;20058;-61
2021/03/20 03:12:45;;;;;;;7.05;1.75;;;1.10;73.70;;;;;;4996072;28;20060;-61
2021/03/20 03:15:18;;;;;;;3.97;1.10;;;1.00;73.60;;;;;;4995139;28;20120;-61
2021/03/20 03:17:51;;;;;;;2.60;0.90;;;1.00;73.40;;;;;;4994158;28;20056;-61
2021/03/20 03:20:30;;;;;;;2.20;1.00;;;1.00;73.30;;;;;;4995546;28;20037;-61
2021/03/20 03:23:13;;;;;;;2.75;1.10;;;1.00;73.40;;;;;;4995154;28;20037;-61
2021/03/20 03:25:44;;;;;;;3.58;1.13;;;1.00;74.10;;;;;;4996111;28;20059;-60
2021/03/20 03:28:13;;;;;;;1.25;0.70;;;1.00;73.60;;;;;;4995570;28;20100;-61
2021/03/20 03:30:39;;;;;;;2.92;1.23;;;1.00;73.30;;;;;;4993585;28;20054;-61
2021/03/20 03:33:16;;;;;;;1.13;0.93;;;1.00;73.50;;;;;;4993672;28;20187;-61
2021/03/20 03:35:46;;;;;;;2.90;1.05;;;1.00;73.40;;;;;;4998999;28;20048;-61
2021/03/20 03:38:33;;;;;;;2.92;1.05;;;1.00;73.40;;;;;;4995179;28;20048;-61
2021/03/20 03:41:14;;;;;;;4.22;1.00;;;1.00;73.10;;;;;;4999429;28;20038;-61
2021/03/20 03:43:40;;;;;;;2.85;1.10;;;1.10;73.40;;;;;;4999038;28;20037;-61
2021/03/20 03:46:07;;;;;;;1.83;1.02;;;1.10;73.70;;;;;;4993225;28;20042;-61
2021/03/20 03:48:34;;;;;;;1.60;0.90;;;1.10;73.90;;;;;;4998290;28;20128;-61
2021/03/20 03:51:14;;;;;;;2.83;1.17;;;1.10;73.80;;;;;;4999026;28;20042;-61
2021/03/20 03:53:40;;;;;;;2.30;1.42;;;1.10;73.50;;;;;;4997885;28;20149;-61
2021/03/20 03:56:26;;;;;;;1.70;0.82;;;1.10;73.40;;;;;;4998208;28;20141;-60
2021/03/20 03:59:03;;;;;;;2.40;0.75;;;1.10;73.00;;;;;;4997834;28;20034;-61
2021/03/20 04:01:45;;;;;;;2.40;0.73;;;1.20;73.20;;;;;;4998682;28;20041;-61
2021/03/20 04:04:29;;;;;;;2.33;0.80;;;1.20;73.80;;;;;;4993838;28;20521;-61
2021/03/20 04:07:19;;;;;;;2.88;1.33;;;1.20;73.70;;;;;;4998516;28;20049;-61
2021/03/20 04:10:16;;;;;;;5.85;0.90;;;1.20;74.00;;;;;;4998043;28;20040;-61
2021/03/20 04:12:57;;;;;;;2.58;0.90;;;1.10;73.30;;;;;;4998707;28;20038;-61
2021/03/20 04:16:11;;;;;;;4.55;1.13;;;1.20;73.10;;;;;;4996715;28;20057;-61
2021/03/20 04:19:06;;;;;;;4.15;1.63;;;1.10;73.70;;;;;;4997155;28;20384;-61
2021/03/20 04:21:51;;;;;;;1.75;0.95;;;1.20;74.10;;;;;;4995343;28;20221;-61
2021/03/20 04:24:29;;;;;;;2.97;1.42;;;1.20;74.10;;;;;;4997956;28;20192;-61
2021/03/20 04:27:04;;;;;;;1.63;1.00;;;1.20;74.20;;;;;;4995218;28;20030;-61
2021/03/20 04:29:50;;;;;;;3.05;1.10;;;1.20;74.10;;;;;;4997553;28;20061;-61
2021/03/20 04:32:25;;;;;;;1.98;1.00;;;1.10;74.50;;;;;;4992878;28;20836;-61
2021/03/20 04:35:05;;;;;;;0.95;0.85;;;1.10;74.60;;;;;;4994207;28;20140;-61
2021/03/20 04:37:35;;;;;;;1.55;0.88;;;1.10;74.80;;;;;;4996032;28;20053;-61
2021/03/20 04:40:04;;;;;;;3.63;1.10;;;1.10;74.30;;;;;;4997468;28;20041;-61
2021/03/20 04:42:33;;;;;;;1.38;1.23;;;1.10;74.40;;;;;;4996274;28;20040;-61
2021/03/20 04:45:33;;;;;;;2.55;1.10;;;1.20;74.60;;;;;;4996737;28;20050;-61
2021/03/20 04:48:04;;;;;;;2.85;1.05;;;1.20;74.30;;;;;;4980204;28;20144;-61
2021/03/20 04:50:31;;;;;;;4.15;1.35;;;1.20;74.50;;;;;;4997094;28;20117;-61
2021/03/20 04:52:59;;;;;;;2.13;1.10;;;1.20;74.50;;;;;;4997178;28;20191;-61
2021/03/20 04:55:26;;;;;;;3.28;1.00;;;1.20;74.10;;;;;;4997425;28;20068;-61
2021/03/20 04:58:05;;;;;;;6.05;1.00;;;1.20;74.30;;;;;;4997111;28;20046;-61
2021/03/20 05:00:36;;;;;;;2.47;1.05;;;1.30;74.20;;;;;;4996574;28;20033;-61
2021/03/20 05:03:09;;;;;;;2.33;0.95;;;1.20;74.10;;;;;;4997115;28;20124;-61
2021/03/20 05:05:50;;;;;;;1.80;0.95;;;1.30;75.00;;;;;;4997220;28;20403;-61
2021/03/20 05:08:38;;;;;;;2.38;1.10;;;1.20;74.80;;;;;;4991402;28;20065;-61
2021/03/20 05:11:07;;;;;;;2.47;0.93;;;1.30;74.60;;;;;;4996256;28;20092;-61
2021/03/20 05:14:01;;;;;;;3.35;1.10;;;1.30;74.70;;;;;;4996790;28;20065;-60
2021/03/20 05:16:57;;;;;;;3.40;1.10;;;1.30;74.60;;;;;;4987942;28;20054;-61
2021/03/20 05:19:25;;;;;;;3.25;1.08;;;1.30;74.10;;;;;;4995703;28;20058;-61
2021/03/20 05:21:54;;;;;;;4.80;1.00;;;1.30;74.00;;;;;;4993921;28;20049;-61
2021/03/20 05:24:38;;;;;;;2.35;0.98;;;1.30;74.00;;;;;;4996896;28;20129;-61
2021/03/20 05:27:08;;;;;;;5.65;1.08;;;1.30;73.90;;;;;;4995521;28;20658;-61
2021/03/20 05:29:34;;;;;;;1.88;1.02;;;1.40;74.00;;;;;;4996179;28;20056;-61
2021/03/20 05:32:01;;;;;;;2.40;0.90;;;1.40;74.00;;;;;;4995943;28;20722;-61
2021/03/20 05:34:39;;;;;;;3.47;1.17;;;1.40;73.60;;;;;;4995026;28;20802;-61
2021/03/20 05:37:06;;;;;;;1.63;1.10;;;1.40;73.60;;;;;;4995076;28;20066;-61
2021/03/20 05:39:32;;;;;;;5.28;1.10;;;1.40;73.40;;;;;;4996058;28;20038;-61
2021/03/20 05:42:14;;;;;;;3.60;1.20;;;1.50;73.40;;;;;;4993804;28;20856;-61
2021/03/20 05:44:56;;;;;;;3.00;1.20;;;1.50;73.20;;;;;;4996379;28;20487;-61
2021/03/20 05:47:32;;;;;;;5.78;1.38;;;1.50;73.10;;;;;;4996080;28;20136;-65
2021/03/20 05:50:17;;;;;;;3.53;1.92;;;1.50;73.00;;;;;;4997071;28;20025;-61
2021/03/20 05:52:58;;;;;;;18.23;5.95;;;1.60;73.30;;;;;;4997184;28;20700;-61
2021/03/20 05:55:55;;;;;;;114.35;34.08;;;1.60;73.10;;;;;;4996094;28;20030;-61
2021/03/20 05:58:32;;;;;;;35.28;12.45;;;1.70;73.00;;;;;;4985569;28;20770;-61
2021/03/20 06:01:07;;;;;;;10.68;3.83;;;1.70;72.90;;;;;;4995580;28;20410;-63
2021/03/20 06:03:57;;;;;;;6.68;2.33;;;1.80;72.90;;;;;;4997282;28;20576;-61
2021/03/20 06:06:44;;;;;;;7.63;3.17;;;1.80;72.40;;;;;;4996468;28;20151;-61
2021/03/20 06:09:35;;;;;;;6.07;2.70;;;1.80;72.20;;;;;;4996481;28;20041;-65
2021/03/20 06:12:13;;;;;;;3.95;1.45;;;1.90;72.10;;;;;;4994443;28;20030;-62
2021/03/20 06:14:44;;;;;;;5.47;2.20;;;1.90;71.70;;;;;;4995583;28;20041;-62
2021/03/20 06:17:35;;;;;;;10.95;4.38;;;2.00;71.60;;;;;;4996181;28;20038;-61
2021/03/20 06:20:10;;;;;;;7.15;2.67;;;2.00;71.20;;;;;;4990877;28;20037;-62
2021/03/20 06:23:04;;;;;;;20.77;6.38;;;2.10;71.00;;;;;;4997030;28;20041;-57
2021/03/20 06:25:41;;;;;;;11.02;3.55;;;2.20;71.10;;;;;;4995876;28;20507;-58
2021/03/20 06:28:09;;;;;;;8.23;2.58;;;2.30;70.70;;;;;;4995171;28;20080;-60
2021/03/20 06:30:46;;;;;;;3.47;1.50;;;2.30;70.70;;;;;;4996300;28;20033;-58
2021/03/20 06:33:15;;;;;;;3.95;1.63;;;2.40;70.30;;;;;;4997416;28;20061;-64
2021/03/20 06:35:45;;;;;;;4.63;1.48;;;2.40;69.80;;;;;;4995818;28;20044;-62
2021/03/20 06:38:34;;;;;;;5.07;1.40;;;2.40;68.60;;;;;;4991559;28;20108;-62
2021/03/20 06:41:18;;;;;;;6.47;2.15;;;2.50;68.40;;;;;;4966979;28;20558;-62
2021/03/20 06:43:52;;;;;;;6.07;1.85;;;2.40;68.20;;;;;;4996222;28;20367;-61
2021/03/20 06:46:22;;;;;;;1.98;1.23;;;2.40;68.40;;;;;;4996525;28;20113;-62
2021/03/20 06:48:48;;;;;;;4.28;1.50;;;2.50;68.90;;;;;;4996218;28;20121;-63
2021/03/20 06:51:15;;;;;;;5.50;1.33;;;2.50;69.00;;;;;;4995893;28;20034;-62
2021/03/20 06:53:54;;;;;;;6.47;1.38;;;2.60;68.80;;;;;;4996178;28;20038;-62
2021/03/20 06:56:20;;;;;;;5.47;1.70;;;2.60;68.40;;;;;;4995931;28;20045;-62
2021/03/20 06:58:46;;;;;;;4.72;1.60;;;2.60;68.00;;;;;;4995504;28;20487;-62
2021/03/20 07:01:19;;;;;;;5.38;1.67;;;2.60;67.80;;;;;;4994568;28;20037;-62
2021/03/20 07:04:01;;;;;;;7.63;1.70;;;2.60;68.00;;;;;;4995533;28;20030;-65
2021/03/20 07:06:49;;;;;;;4.50;1.70;;;2.60;67.80;;;;;;4999232;28;20029;-62
2021/03/20 07:09:14;;;;;;;4.60;2.13;;;2.60;67.40;;;;;;4999647;28;20030;-62
2021/03/20 07:12:02;;;;;;;31.80;11.20;;;2.50;67.50;;;;;;4999909;28;20756;-61
2021/03/20 07:14:36;;;;;;;7.93;4.03;;;2.50;67.60;;;;;;4999418;28;20041;-64
2021/03/20 07:17:04;;;;;;;4.72;2.70;;;2.80;68.30;;;;;;4999870;28;20072;-62
2021/03/20 07:19:30;;;;;;;4.70;2.28;;;3.10;66.40;;;;;;4998763;28;20037;-63
2021/03/20 07:21:58;;;;;;;13.18;7.63;;;3.20;65.40;;;;;;4999743;28;20088;-62
2021/03/20 07:24:45;;;;;;;6.63;2.75;;;3.40;65.00;;;;;;4998173;28;20041;-62
2021/03/20 07:27:13;;;;;;;8.48;4.93;;;3.80;63.40;;;;;;4994434;28;20034;-62
2021/03/20 07:29:41;;;;;;;6.18;2.35;;;4.50;60.40;;;;;;4998398;28;20496;-62
2021/03/20 07:32:11;;;;;;;4.72;2.00;;;5.10;59.00;;;;;;4994110;28;20037;-62
2021/03/20 07:34:37;;;;;;;8.93;3.60;;;5.40;57.40;;;;;;4999812;28;20030;-62
2021/03/20 07:37:07;;;;;;;9.85;3.72;;;5.50;56.70;;;;;;4998645;28;20838;-61
2021/03/20 07:39:39;;;;;;;5.70;2.85;;;5.70;57.20;;;;;;4999634;28;20053;-62
2021/03/20 07:42:09;;;;;;;5.43;2.42;;;6.00;55.60;;;;;;4998820;28;20065;-62
2021/03/20 07:44:56;;;;;;;10.77;4.57;;;6.20;54.50;;;;;;4999190;28;20118;-62
2021/03/20 07:47:26;;;;;;;4.45;2.15;;;6.70;53.70;;;;;;4995757;28;20739;-62
2021/03/20 07:50:09;;;;;;;2.50;1.30;;;7.20;52.10;;;;;;4996853;28;20037;-63
2021/03/20 07:52:36;;;;;;;4.85;1.48;;;7.60;51.10;;;;;;4998518;28;20092;-62
2021/03/20 07:55:11;;;;;;;3.17;1.50;;;7.90;49.10;;;;;;4992917;28;20037;-62
2021/03/20 07:57:38;;;;;;;7.22;5.30;;;7.90;49.10;;;;;;4994496;28;20051;-63
2021/03/20 08:00:20;;;;;;;2.90;1.52;;;7.90;49.60;;;;;;4989754;28;20042;-62
2021/03/20 08:02:46;;;;;;;7.53;4.80;;;7.80;48.50;;;;;;4988187;28;20038;-62
2021/03/20 08:05:17;;;;;;;14.73;9.45;;;7.90;48.60;;;;;;4990624;28;20121;-62
2021/03/20 08:07:48;;;;;;;37.88;20.55;;;8.10;47.60;;;;;;4980629;28;20050;-63
2021/03/20 08:10:28;;;;;;;3.65;1.65;;;8.30;47.60;;;;;;4983826;28;20034;-62
2021/03/20 08:13:15;;;;;;;14.07;7.07;;;8.50;46.50;;;;;;4988973;28;20140;-62
2021/03/20 08:15:46;;;;;;;5.97;2.90;;;8.30;46.20;;;;;;4977546;28;20045;-62
2021/03/20 08:18:12;;;;;;;7.15;2.22;;;8.10;46.10;;;;;;4986687;28;20807;-63
2021/03/20 08:20:39;;;;;;;7.32;3.65;;;7.80;45.50;;;;;;4993412;28;20029;-62
2021/03/20 08:23:34;;;;;;;3.50;1.30;;;7.70;46.80;;;;;;4993808;28;20490;-62
2021/03/20 08:26:11;;;;;;;4.60;1.58;;;7.60;46.50;;;;;;4992319;28;20156;-62
2021/03/20 08:28:53;;;;;;;1.67;0.90;;;7.60;46.70;;;;;;4990484;28;20040;-62
2021/03/20 08:31:52;;;;;;;1.50;0.80;;;7.50;45.50;;;;;;4990183;28;20053;-62
2021/03/20 08:34:33;;;;;;;2.38;1.67;;;7.40;46.10;;;;;;4988200;28;20141;-62
2021/03/20 08:37:14;;;;;;;5.68;1.33;;;7.40;45.80;;;;;;4987723;28;20661;-62
2021/03/20 08:40:07;;;;;;;2.13;0.90;;;7.30;44.00;;;;;;4992531;28;20037;-62
2021/03/20 08:42:48;;;;;;;1.70;0.77;;;7.20;44.50;;;;;;4990964;28;20208;-62
2021/03/20 08:45:40;;;;;;;2.67;0.70;;;7.30;45.40;;;;;;4992903;28;20119;-62
2021/03/20 08:48:30;;;;;;;2.78;0.80;;;7.40;43.30;;;;;;4987762;28;20069;-62
2021/03/20 08:51:21;;;;;;;1.92;0.98;;;7.50;43.40;;;;;;4992555;28;20034;-62
2021/03/20 08:53:58;;;;;;;5.80;2.25;;;7.60;42.90;;;;;;4990976;28;20038;-62
2021/03/20 08:56:38;;;;;;;4.40;1.50;;;7.80;43.60;;;;;;4989309;28;20037;-62
2021/03/20 08:59:16;;;;;;;4.50;1.35;;;8.00;42.60;;;;;;4987619;28;20096;-62
2021/03/20 09:02:02;;;;;;;3.33;1.08;;;8.10;42.20;;;;;;4991125;28;20561;-61
2021/03/20 09:04:34;;;;;;;3.25;1.00;;;8.20;42.10;;;;;;4994657;28;20125;-62
2021/03/20 09:07:08;;;;;;;1.92;0.80;;;8.10;40.90;;;;;;4992192;28;20034;-61
2021/03/20 09:09:43;;;;;;;6.88;2.35;;;8.10;40.30;;;;;;4983974;28;20034;-61
2021/03/20 09:12:35;;;;;;;2.90;1.53;;;8.00;41.10;;;;;;4985822;28;20483;-62
2021/03/20 09:15:05;;;;;;;2.08;1.45;;;7.90;40.00;;;;;;4982820;28;20041;-62
2021/03/20 09:17:38;;;;;;;9.88;6.57;;;7.90;40.10;;;;;;4982627;28;20038;-62
2021/03/20 09:20:31;;;;;;;7.05;4.20;;;7.90;40.40;;;;;;4992854;28;20859;-62
2021/03/20 09:22:58;;;;;;;1.05;0.60;;;8.00;41.00;;;;;;4982349;28;20141;-62
2021/03/20 09:25:39;;;;;;;1.35;0.80;;;8.00;39.30;;;;;;4982470;28;20300;-62
2021/03/20 09:28:13;;;;;;;3.45;1.77;;;8.10;37.20;;;;;;4985362;28;20037;-62
2021/03/20 09:30:39;;;;;;;3.53;1.10;;;8.10;36.70;;;;;;4991671;28;20144;-62
2021/03/20 09:33:13;;;;;;;1.25;0.50;;;8.10;39.00;;;;;;4995197;28;20792;-62
2021/03/20 09:35:48;;;;;;;1.90;1.13;;;8.30;39.30;;;;;;4989130;28;20042;-62
2021/03/20 09:38:36;;;;;;;3.03;1.88;;;8.10;39.40;;;;;;4988250;28;20382;-62
2021/03/20 09:41:06;;;;;;;2.58;1.02;;;8.00;39.30;;;;;;4994478;28;20092;-62
2021/03/20 09:43:50;;;;;;;2.33;1.08;;;8.10;41.00;;;;;;4985741;28;20100;-62
2021/03/20 09:46:45;;;;;;;2.08;0.80;;;8.20;40.30;;;;;;4986851;28;20034;-62
2021/03/20 09:49:10;;;;;;;1.75;0.57;;;8.10;39.30;;;;;;4993190;28;20128;-62
2021/03/20 09:51:48;;;;;;;3.88;0.98;;;8.00;39.70;;;;;;4996852;28;20120;-62
2021/03/20 09:54:23;;;;;;;1.10;0.52;;;8.00;40.00;;;;;;4995041;28;20052;-62
2021/03/20 09:56:54;;;;;;;1.95;0.80;;;8.10;39.10;;;;;;4996246;28;20041;-62
2021/03/20 09:59:34;;;;;;;2.20;1.05;;;8.20;41.40;;;;;;4990464;28;20100;-62
2021/03/20 10:02:09;;;;;;;2.70;1.17;;;8.40;39.80;;;;;;4990268;28;20034;-62
2021/03/20 10:04:59;;;;;;;6.20;1.90;;;8.60;39.30;;;;;;4990172;28;20038;-62
2021/03/20 10:07:30;;;;;;;3.47;1.40;;;8.60;41.00;;;;;;4989957;28;20496;-62
2021/03/20 10:09:59;;;;;;;3.97;2.05;;;8.80;38.70;;;;;;4990522;28;20065;-62
2021/03/20 10:12:30;;;;;;;2.92;2.63;;;8.80;38.70;;;;;;4991817;28;20034;-62
2021/03/20 10:18:00;;;;;;;5.38;2.95;;;9.20;39.90;;;;;;4994678;28;20113;-62
2021/03/20 10:20:37;;;;;;;1.58;0.80;;;9.20;39.00;;;;;;4983618;28;20034;-62
2021/03/20 10:23:11;;;;;;;3.03;0.75;;;9.10;38.50;;;;;;4988199;28;20026;-62
2021/03/20 10:25:43;;;;;;;8.35;3.88;;;9.00;37.40;;;;;;4987286;28;20592;-62
2021/03/20 10:28:09;;;;;;;7.03;3.70;;;8.90;38.10;;;;;;4986099;28;20030;-62
2021/03/20 10:30:37;;;;;;;3.67;1.33;;;8.80;38.00;;;;;;4985912;28;20672;-62
2021/03/20 10:33:06;;;;;;;2.75;1.33;;;8.60;39.70;;;;;;4986216;28;20703;-62
2021/03/20 10:35:37;;;;;;;3.00;1.20;;;8.50;38.70;;;;;;4985986;28;20030;-62
2021/03/20 10:38:17;;;;;;;2.45;1.10;;;8.20;39.20;;;;;;4994596;28;20199;-63
2021/03/20 10:40:43;;;;;;;2.95;1.38;;;8.10;39.90;;;;;;4985246;28;20543;-62
2021/03/20 10:43:14;;;;;;;4.32;2.90;;;8.00;39.80;;;;;;4987748;28;20041;-62
2021/03/20 10:45:43;;;;;;;18.52;9.10;;;7.90;40.90;;;;;;4993097;28;20030;-64
2021/03/20 10:48:19;;;;;;;20.33;9.32;;;7.90;39.20;;;;;;4984306;28;20141;-66
2021/03/20 10:50:49;;;;;;;4.97;2.22;;;8.00;39.30;;;;;;4988375;28;20030;-66
2021/03/20 10:53:22;;;;;;;9.63;5.03;;;8.10;38.60;;;;;;4989776;28;20104;-62
2021/03/20 10:55:54;;;;;;;3.33;2.17;;;8.20;40.50;;;;;;4986269;28;20109;-63
2021/03/20 10:58:32;;;;;;;3.97;2.42;;;8.40;39.70;;;;;;4995120;28;20038;-62
2021/03/20 11:00:58;;;;;;;2.67;1.00;;;8.50;39.40;;;;;;4989576;28;20034;-62
2021/03/20 11:03:35;;;;;;;1.50;1.13;;;8.60;39.60;;;;;;4982326;28;20053;-61
2021/03/20 11:06:12;;;;;;;3.97;1.20;;;8.60;39.20;;;;;;4984866;28;20057;-61
2021/03/20 11:08:39;;;;;;;2.92;0.95;;;8.60;38.80;;;;;;4990590;28;20543;-61
2021/03/20 11:11:23;;;;;;;2.35;0.70;;;8.40;37.60;;;;;;4985376;28;20084;-61
2021/03/20 11:13:51;;;;;;;2.67;0.80;;;8.40;35.00;;;;;;4986928;28;20034;-61
2021/03/20 11:16:23;;;;;;;2.25;0.77;;;8.20;36.80;;;;;;4987131;28;20406;-61
2021/03/20 11:18:55;;;;;;;1.85;0.98;;;8.30;39.10;;;;;;4990765;28;20906;-61
2021/03/20 11:21:41;;;;;;;2.53;1.02;;;8.20;37.60;;;;;;4990600;28;20081;-62
2021/03/20 11:24:24;;;;;;;1.80;1.00;;;8.10;38.70;;;;;;4991730;28;20038;-61
2021/03/20 11:26:52;;;;;;;2.33;1.75;;;8.10;38.90;;;;;;4988688;28;20121;-61
2021/03/20 11:29:26;;;;;;;3.38;1.40;;;8.20;39.00;;;;;;4993586;28;20057;-61
2021/03/20 11:32:03;;;;;;;3.17;2.15;;;8.30;38.30;;;;;;4983435;28;20042;-61
2021/03/20 11:34:35;;;;;;;3.22;1.58;;;8.40;39.90;;;;;;4991178;28;20065;-61
2021/03/20 11:37:02;;;;;;;31.38;14.27;;;8.50;39.80;;;;;;4988433;28;20046;-61
2021/03/20 11:39:28;;;;;;;3.85;2.13;;;8.50;37.70;;;;;;4983464;28;20129;-61
2021/03/20 11:42:02;;;;;;;5.25;2.63;;;8.30;38.30;;;;;;4984678;28;20041;-61
2021/03/20 11:44:30;;;;;;;5.85;2.50;;;8.30;39.70;;;;;;4982364;28;20558;-61
2021/03/20 11:47:02;;;;;;;6.85;3.40;;;8.30;38.60;;;;;;4985538;28;20034;-61
2021/03/20 11:49:45;;;;;;;6.50;3.92;;;8.20;38.50;;;;;;4990288;28;20802;-62
2021/03/20 11:52:24;;;;;;;4.32;1.83;;;8.20;39.80;;;;;;4989443;28;20045;-62
2021/03/20 11:55:02;;;;;;;6.22;1.73;;;8.10;40.20;;;;;;4991698;28;20078;-61
2021/03/20 11:57:33;;;;;;;5.40;2.70;;;8.10;39.80;;;;;;4998098;28;20044;-61
2021/03/20 11:59:59;;;;;;;2.22;1.20;;;8.10;39.70;;;;;;4993727;28;20045;-61
2021/03/20 12:02:24;;;;;;;4.50;2.75;;;8.20;40.80;;;;;;4991020;28;20084;-61
2021/03/20 12:05:18;;;;;;;11.77;5.15;;;8.10;39.30;;;;;;4995021;28;20029;-62
2021/03/20 12:07:45;;;;;;;23.30;10.88;;;8.20;41.10;;;;;;4988144;28;20038;-61
2021/03/20 12:10:25;;;;;;;12.50;4.55;;;8.20;39.50;;;;;;4995650;28;20054;-62
2021/03/20 12:12:54;;;;;;;4.07;1.13;;;8.20;41.50;;;;;;4992009;28;20022;-62
2021/03/20 12:15:28;;;;;;;14.27;6.78;;;8.20;40.70;;;;;;4991432;28;20482;-62
2021/03/20 12:17:57;;;;;;;14.63;6.03;;;8.20;40.10;;;;;;4992454;28;20042;-62
2021/03/20 12:20:33;;;;;;;10.65;3.60;;;8.20;40.50;;;;;;4993743;28;20044;-62
2021/03/20 12:23:14;;;;;;;7.28;1.23;;;8.20;40.20;;;;;;4984620;28;20923;-62
2021/03/20 12:25:39;;;;;;;5.88;1.80;;;8.10;40.80;;;;;;4989197;28;20030;-62
2021/03/20 12:28:27;;;;;;;6.43;2.50;;;8.00;40.30;;;;;;4991300;28;20104;-62
2021/03/20 12:31:11;;;;;;;7.18;2.38;;;7.90;39.40;;;;;;4988929;28;20038;-61
2021/03/20 12:33:44;;;;;;;4.90;2.28;;;8.00;41.20;;;;;;4982377;28;20038;-62
2021/03/20 12:36:39;;;;;;;20.45;7.00;;;8.00;41.20;;;;;;4991294;28;20399;-61
2021/03/20 12:39:11;;;;;;;22.02;6.60;;;8.00;39.50;;;;;;4987652;28;20049;-61
2021/03/20 12:41:40;;;;;;;7.28;2.17;;;7.90;41.70;;;;;;4988707;28;20047;-62
2021/03/20 12:44:24;;;;;;;34.75;8.57;;;8.00;41.90;;;;;;4991073;28;21017;-62
2021/03/20 12:46:56;;;;;;;16.48;7.00;;;7.90;40.50;;;;;;4992150;28;20049;-61
2021/03/20 12:49:26;;;;;;;5.28;1.63;;;7.70;39.00;;;;;;4988493;28;20038;-61
2021/03/20 12:52:00;;;;;;;3.53;1.27;;;7.70;42.20;;;;;;4982109;28;20097;-61
2021/03/20 12:54:29;;;;;;;1.55;0.95;;;7.70;40.70;;;;;;4991956;28;20041;-61
2021/03/20 12:56:54;;;;;;;35.47;14.18;;;7.70;40.30;;;;;;4989564;28;20092;-61
2021/03/20 12:59:20;;;;;;;12.38;4.93;;;7.80;40.20;;;;;;4988490;28;20037;-61
2021/03/20 13:01:46;;;;;;;32.63;7.65;;;7.80;41.30;;;;;;4995994;28;20038;-61
2021/03/20 13:04:16;;;;;;;63.67;22.95;;;7.90;41.70;;;;;;4994202;28;20467;-61
2021/03/20 13:06:42;;;;;;;14.07;6.43;;;7.60;40.80;;;;;;4989626;28;20030;-61
2021/03/20 13:09:08;;;;;;;3.25;1.20;;;7.40;41.90;;;;;;4993646;28;20061;-61
2021/03/20 13:11:34;;;;;;;3.45;1.00;;;7.40;43.30;;;;;;4996915;28;20145;-61
2021/03/20 13:14:00;;;;;;;2.03;1.40;;;7.40;43.00;;;;;;4992939;28;20160;-61
2021/03/20 13:16:27;;;;;;;3.90;1.52;;;7.30;43.20;;;;;;4991508;28;20538;-61
2021/03/20 13:18:54;;;;;;;3.17;1.17;;;7.40;42.60;;;;;;4992794;28;20049;-61
2021/03/20 13:21:21;;;;;;;4.22;1.45;;;7.30;44.00;;;;;;4986186;28;20030;-61
2021/03/20 13:23:47;;;;;;;3.10;1.38;;;7.30;43.50;;;;;;4988963;28;20113;-62
2021/03/20 13:26:14;;;;;;;2.42;0.90;;;7.30;42.70;;;;;;4991821;28;20132;-61
2021/03/20 13:28:39;;;;;;;2.92;1.27;;;7.40;43.10;;;;;;4989283;28;20140;-62
2021/03/20 13:31:05;;;;;;;1.25;0.82;;;7.50;43.00;;;;;;4988443;28;20124;-62
2021/03/20 13:33:31;;;;;;;1.50;1.00;;;7.40;42.80;;;;;;4986806;28;20045;-61
2021/03/20 13:35:57;;;;;;;2.63;1.20;;;7.40;43.70;;;;;;4982893;28;20049;-61